Terminal Aerodrome Forecast
Issued by NWS

Home | Current Version | Previous Version | Graphics & Text | Print | Product List | Glossary On
Versions: 1 2 3 4 5 6 7 8 9 10 11 12 13 14 15 16 17 18 19 20 21
966
FTUS43 KBIS 222227 AAC
TAFMOT
TAF AMD
KMOT 222227Z 2222/2318 02014KT P6SM VCSH OVC025
     FM230200 05009KT P6SM VCSH BKN020 OVC080
     FM230600 07011KT 6SM -RASN OVC008
     FM230800 07011KT 3SM -SN OVC007
     FM231300 07010KT P6SM OVC005=

USA.gov is the U.S. government's official web portal to all federal, state and local government web resources and services.